<?xml version='1.0' encoding='UTF-8'?>
<gpx xmlns="http://www.topografix.com/GPX/1/1" creator="www.balnam.be" version="1.1" xmlns:xsi="http://www.w3.org/2001/XMLSchema-instance" xsi:schemaLocation="http://www.topografix.com/GPX/1/1 http://www.topografix.com/GPX/1/1/gpx.xsd">
<trk>
<name>ndsmg3</name>
<cmt>v</cmt>
<desc>Matagne-la-Grande Chemin n°3 Quartier Saint-Laurent</desc>
<link href="https://chemins.be/matagnelagrande/chemin/3"/><trkseg>
<trkpt lat="50.108906" lon="4.591708"><time>2026-05-02T16:08:45Z</time></trkpt>
<trkpt lat="50.109242" lon="4.594757"><time>2026-05-02T16:18:45Z</time></trkpt>
<trkpt lat="50.109205" lon="4.595372"><time>2026-05-02T16:28:45Z</time></trkpt>
<trkpt lat="50.109257" lon="4.596100"><time>2026-05-02T16:38:45Z</time></trkpt>
<trkpt lat="50.109427" lon="4.597087"><time>2026-05-02T16:48:45Z</time></trkpt>
<trkpt lat="50.109361" lon="4.598141"><time>2026-05-02T16:58:45Z</time></trkpt>
<trkpt lat="50.109530" lon="4.599148"><time>2026-05-02T17:08:45Z</time></trkpt>
<trkpt lat="50.109941" lon="4.600367"><time>2026-05-02T17:18:45Z</time></trkpt>
<trkpt lat="50.110010" lon="4.601737"><time>2026-05-02T17:28:45Z</time></trkpt>
<trkpt lat="50.110007" lon="4.603261"><time>2026-05-02T17:38:45Z</time></trkpt>
<trkpt lat="50.109107" lon="4.607856"><time>2026-05-02T17:48:45Z</time></trkpt>
<trkpt lat="50.109295" lon="4.612694"><time>2026-05-02T17:58:45Z</time></trkpt>
<trkpt lat="50.110609" lon="4.618415"><time>2026-05-02T18:08:45Z</time></trkpt>
<trkpt lat="50.111026" lon="4.619833"><time>2026-05-02T18:18:45Z</time></trkpt>
<trkpt lat="50.111637" lon="4.620505"><time>2026-05-02T18:28:45Z</time></trkpt>
</trkseg></trk>
<trk>
<name>ndsmg3</name>
<cmt>d</cmt>
<desc>Matagne-la-Grande Chemin n°3 Quartier Saint-Laurent</desc>
<link href="https://chemins.be/matagnelagrande/chemin/3"/><trkseg>
<trkpt lat="50.111637" lon="4.620505"><time>2026-05-02T18:28:45Z</time></trkpt>
<trkpt lat="50.112261" lon="4.620930"><time>2026-05-02T18:38:45Z</time></trkpt>
<trkpt lat="50.112666" lon="4.621491"><time>2026-05-02T18:48:45Z</time></trkpt>
<trkpt lat="50.112536" lon="4.623378"><time>2026-05-02T18:58:45Z</time></trkpt>
</trkseg></trk>
<trk>
<name>ndsmg3</name>
<cmt>r</cmt>
<desc>Matagne-la-Grande Chemin n°3 Quartier Saint-Laurent</desc>
<link href="https://chemins.be/matagnelagrande/chemin/3"/><trkseg>
<trkpt lat="50.112536" lon="4.623378"><time>2026-05-02T18:58:45Z</time></trkpt>
<trkpt lat="50.113797" lon="4.622336"><time>2026-05-02T19:08:45Z</time></trkpt>
</trkseg></trk>
<trk>
<name>ndsmg3</name>
<cmt>v</cmt>
<desc>Matagne-la-Grande Chemin n°3 Quartier Saint-Laurent</desc>
<link href="https://chemins.be/matagnelagrande/chemin/3"/><trkseg>
<trkpt lat="50.113797" lon="4.622336"><time>2026-05-02T19:08:45Z</time></trkpt>
<trkpt lat="50.114424" lon="4.623262"><time>2026-05-02T19:18:45Z</time></trkpt>
<trkpt lat="50.114692" lon="4.623949"><time>2026-05-02T19:28:45Z</time></trkpt>
<trkpt lat="50.114826" lon="4.624215"><time>2026-05-02T19:38:45Z</time></trkpt>
</trkseg></trk>
<trk>
<name>ndsmg3</name>
<cmt>r</cmt>
<desc>Matagne-la-Grande Chemin n°3 Quartier Saint-Laurent</desc>
<link href="https://chemins.be/matagnelagrande/chemin/3"/><trkseg>
<trkpt lat="50.114826" lon="4.624215"><time>2026-05-02T19:38:45Z</time></trkpt>
<trkpt lat="50.114852" lon="4.624761"><time>2026-05-02T19:48:45Z</time></trkpt>
<trkpt lat="50.116173" lon="4.625117"><time>2026-05-02T19:58:45Z</time></trkpt>
</trkseg>
</trk>
</gpx>